createdAt,value
2023-02-08T00:02:03.065Z,14.60
2023-02-08T00:04:50.471Z,14.70
2023-02-08T00:07:37.824Z,15.27
2023-02-08T00:10:25.222Z,14.70
2023-02-08T00:13:12.598Z,14.43
2023-02-08T00:16:00.206Z,14.77
2023-02-08T00:18:47.758Z,14.73
2023-02-08T00:21:35.108Z,15.20
2023-02-08T00:24:22.533Z,14.60
2023-02-08T00:27:19.624Z,14.90
2023-02-08T00:30:16.363Z,14.50
2023-02-08T00:33:05.139Z,15.27
2023-02-08T00:35:53.121Z,13.87
2023-02-08T00:38:40.583Z,13.30
2023-02-08T00:41:28.035Z,15.03
2023-02-08T00:44:15.457Z,14.70
2023-02-08T00:47:02.873Z,13.67
2023-02-08T00:49:50.182Z,13.23
2023-02-08T00:52:37.882Z,13.67
2023-02-08T00:55:25.258Z,14.07
2023-02-08T00:58:12.629Z,13.60
2023-02-08T01:01:01.774Z,12.97
2023-02-08T01:03:49.125Z,13.17
2023-02-08T01:06:36.518Z,12.87
2023-02-08T01:09:24.030Z,12.53
2023-02-08T01:12:11.766Z,13.77
2023-02-08T01:14:59.237Z,15.03
2023-02-08T01:17:46.614Z,13.57
2023-02-08T01:20:35.577Z,13.63
2023-02-08T01:23:22.995Z,13.87
2023-02-08T01:26:11.329Z,18.07
2023-02-08T01:28:59.469Z,18.63
2023-02-08T01:31:47.134Z,16.63
2023-02-08T01:34:34.533Z,15.63
2023-02-08T01:37:21.980Z,14.43
2023-02-08T01:40:09.694Z,14.43
2023-02-08T01:42:57.049Z,15.47
2023-02-08T01:45:44.401Z,13.90
2023-02-08T01:48:34.571Z,13.80
2023-02-08T01:51:23.286Z,14.57
2023-02-08T01:54:11.651Z,16.57
2023-02-08T01:56:59.251Z,17.07
2023-02-08T01:59:48.155Z,19.20
2023-02-08T02:02:36.857Z,19.50
2023-02-08T02:05:26.702Z,19.87
2023-02-08T02:08:14.216Z,22.97
2023-02-08T02:11:02.298Z,19.27
2023-02-08T02:13:51.079Z,19.67
2023-02-08T02:16:38.749Z,33.10
2023-02-08T02:19:32.259Z,34.23
2023-02-08T02:22:19.794Z,32.27
2023-02-08T02:25:13.323Z,27.57
2023-02-08T02:28:04.079Z,19.07
2023-02-08T02:31:12.445Z,15.63
2023-02-08T02:33:59.775Z,18.70
2023-02-08T02:36:56.522Z,16.17
2023-02-08T02:40:09.311Z,13.70
2023-02-08T02:43:22.045Z,12.90
2023-02-08T02:46:09.573Z,13.93
2023-02-08T02:49:03.714Z,17.33
2023-02-08T02:51:57.908Z,20.20
2023-02-08T02:54:51.805Z,16.10
2023-02-08T02:57:40.699Z,13.93
2023-02-08T03:00:30.012Z,14.13
2023-02-08T03:03:22.794Z,13.83
2023-02-08T03:06:19.017Z,13.07
2023-02-08T03:09:18.380Z,14.13
2023-02-08T03:12:14.036Z,15.10
2023-02-08T03:15:01.489Z,15.10
2023-02-08T03:17:55.371Z,13.23
2023-02-08T03:20:48.131Z,11.60
2023-02-08T03:23:41.940Z,13.13
2023-02-08T03:26:35.177Z,13.67
2023-02-08T03:29:41.729Z,14.03
2023-02-08T03:32:29.186Z,12.97
2023-02-08T03:35:20.503Z,13.43
2023-02-08T03:38:13.996Z,14.73
2023-02-08T03:41:03.123Z,13.73
2023-02-08T03:43:53.087Z,14.23
2023-02-08T03:46:42.832Z,13.70
2023-02-08T03:49:34.490Z,13.57
2023-02-08T03:52:23.100Z,13.80
2023-02-08T03:55:15.832Z,14.07
2023-02-08T03:58:12.350Z,13.23
2023-02-08T04:01:04.718Z,12.37
2023-02-08T04:03:53.914Z,13.47
2023-02-08T04:06:41.426Z,13.17
2023-02-08T04:09:28.808Z,13.40
2023-02-08T04:12:16.253Z,12.70
2023-02-08T04:15:03.801Z,13.50
2023-02-08T04:17:51.166Z,13.10
2023-02-08T04:20:38.838Z,13.00
2023-02-08T04:23:26.288Z,12.50
2023-02-08T04:26:13.726Z,12.00
2023-02-08T04:29:01.134Z,14.17
2023-02-08T04:31:48.586Z,13.47
2023-02-08T04:34:35.961Z,14.17
2023-02-08T04:37:23.374Z,14.10
2023-02-08T04:40:11.205Z,13.07
2023-02-08T04:42:58.603Z,16.65
2023-02-08T04:45:46.117Z,13.57
2023-02-08T04:48:33.498Z,12.53
2023-02-08T04:51:20.958Z,13.23
2023-02-08T04:54:08.739Z,12.17
2023-02-08T04:56:56.256Z,12.93
2023-02-08T04:59:43.639Z,12.47
2023-02-08T05:02:31.022Z,11.77
2023-02-08T05:05:18.501Z,13.27
2023-02-08T05:08:05.908Z,15.73
2023-02-08T05:10:53.382Z,15.43
2023-02-08T05:13:40.804Z,14.03
2023-02-08T05:16:28.257Z,13.00
2023-02-08T05:19:15.852Z,14.23
2023-02-08T05:22:03.302Z,15.13
2023-02-08T05:24:50.776Z,14.23
2023-02-08T05:27:38.130Z,15.30
2023-02-08T05:30:25.560Z,14.90
2023-02-08T05:33:13.077Z,16.90
2023-02-08T05:36:00.507Z,15.50
2023-02-08T05:38:48.066Z,16.57
2023-02-08T05:41:35.782Z,18.07
2023-02-08T05:44:25.001Z,18.40
2023-02-08T05:47:13.879Z,18.63
2023-02-08T05:50:01.353Z,17.57
2023-02-08T05:52:48.718Z,19.30
2023-02-08T05:55:36.090Z,17.33
2023-02-08T05:58:23.452Z,18.00
2023-02-08T06:01:11.338Z,16.93
2023-02-08T06:04:00.213Z,18.27
2023-02-08T06:06:47.606Z,19.47
2023-02-08T06:09:34.924Z,18.27
2023-02-08T06:12:22.338Z,19.07
2023-02-08T06:15:10.066Z,18.30
2023-02-08T06:17:57.766Z,18.07
2023-02-08T06:20:45.192Z,19.03
2023-02-08T06:23:32.761Z,18.30
2023-02-08T06:26:20.123Z,19.17
2023-02-08T06:29:07.473Z,17.30
2023-02-08T06:31:54.950Z,17.87
2023-02-08T06:34:42.454Z,19.60
2023-02-08T06:37:29.849Z,18.13
2023-02-08T06:40:17.242Z,18.33
2023-02-08T06:43:04.583Z,19.33
2023-02-08T06:45:52.046Z,18.87
2023-02-08T06:48:39.520Z,20.13
2023-02-08T06:51:27.583Z,20.77
2023-02-08T06:54:15.583Z,20.97
2023-02-08T06:57:02.994Z,21.73
2023-02-08T06:59:50.395Z,22.37
2023-02-08T07:02:37.804Z,25.70
2023-02-08T07:05:25.161Z,22.20
2023-02-08T07:08:12.574Z,21.63
2023-02-08T07:11:00.098Z,23.57
2023-02-08T07:13:48.717Z,23.33
2023-02-08T07:16:36.086Z,24.03
2023-02-08T07:19:23.485Z,23.10
2023-02-08T07:22:10.942Z,21.83
2023-02-08T07:24:58.366Z,23.27
2023-02-08T07:27:45.777Z,23.03
2023-02-08T07:30:33.153Z,22.77
2023-02-08T07:33:20.842Z,22.10
2023-02-08T07:36:08.940Z,22.70
2023-02-08T07:38:56.264Z,21.03
2023-02-08T07:41:43.743Z,24.23
2023-02-08T07:44:31.098Z,22.23
2023-02-08T07:47:18.597Z,23.27
2023-02-08T07:50:06.098Z,23.87
2023-02-08T07:52:53.461Z,22.40
2023-02-08T07:55:40.888Z,22.63
2023-02-08T07:58:28.453Z,23.10
2023-02-08T08:01:22.258Z,23.43
2023-02-08T08:04:10.417Z,23.10
2023-02-08T08:06:57.923Z,23.20
2023-02-08T08:09:45.337Z,23.10
2023-02-08T08:12:32.742Z,21.83
2023-02-08T08:15:20.440Z,24.03
2023-02-08T08:18:07.978Z,22.77
2023-02-08T08:20:55.499Z,23.53
2023-02-08T08:23:43.121Z,22.83
2023-02-08T08:26:30.468Z,23.87
2023-02-08T08:29:17.856Z,22.63
2023-02-08T08:32:05.393Z,24.27
2023-02-08T08:34:52.865Z,24.43
2023-02-08T08:37:40.254Z,23.90
2023-02-08T08:40:27.658Z,22.87
2023-02-08T08:43:15.989Z,22.03
2023-02-08T08:46:03.486Z,22.10
2023-02-08T08:48:51.686Z,19.37
2023-02-08T08:51:39.126Z,21.07
2023-02-08T08:54:26.494Z,20.17
2023-02-08T08:57:13.844Z,18.60
2023-02-08T09:00:02.012Z,21.07
2023-02-08T09:02:49.670Z,17.90
2023-02-08T09:05:37.092Z,17.87
2023-02-08T09:08:24.447Z,17.33
2023-02-08T09:11:15.932Z,17.80
2023-02-08T09:14:04.572Z,18.47
2023-02-08T09:16:52.698Z,16.80
2023-02-08T09:19:40.184Z,16.33
2023-02-08T09:22:27.584Z,15.73
2023-02-08T09:25:15.031Z,16.23
2023-02-08T09:28:02.558Z,16.67
2023-02-08T09:30:49.964Z,14.77
2023-02-08T09:33:37.512Z,14.80
2023-02-08T09:36:25.864Z,15.43
2023-02-08T09:39:17.896Z,14.07
2023-02-08T09:42:14.471Z,17.90
2023-02-08T09:45:20.782Z,14.43
2023-02-08T09:48:20.292Z,15.20
2023-02-08T09:51:07.626Z,14.20
2023-02-08T09:53:58.474Z,15.20
2023-02-08T09:56:47.359Z,15.07
2023-02-08T09:59:35.944Z,13.87
2023-02-08T10:02:23.330Z,13.77
2023-02-08T10:05:15.532Z,14.53
2023-02-08T10:08:03.050Z,14.67
2023-02-08T10:11:00.147Z,15.17
2023-02-08T10:14:16.495Z,14.33
2023-02-08T10:17:22.603Z,14.80
2023-02-08T10:20:29.247Z,14.67
2023-02-08T10:23:19.914Z,14.30
2023-02-08T10:26:14.337Z,13.90
2023-02-08T10:29:07.810Z,13.87
2023-02-08T10:32:01.875Z,14.63
2023-02-08T10:34:56.929Z,15.33
2023-02-08T10:37:46.220Z,14.57
2023-02-08T10:40:36.141Z,14.97
2023-02-08T10:43:27.523Z,14.07
2023-02-08T10:46:21.260Z,13.57
2023-02-08T10:49:21.165Z,13.87
2023-02-08T10:52:08.660Z,14.47
2023-02-08T10:54:59.303Z,13.27
2023-02-08T10:57:48.420Z,13.50
2023-02-08T11:00:39.010Z,13.67
2023-02-08T11:03:27.889Z,13.57
2023-02-08T11:06:28.069Z,13.67
2023-02-08T11:09:26.783Z,14.07
2023-02-08T11:12:19.733Z,13.77
2023-02-08T11:15:21.345Z,13.37
2023-02-08T11:18:16.191Z,14.27
2023-02-08T11:21:05.562Z,13.67
2023-02-08T11:23:54.663Z,13.47
2023-02-08T11:26:45.954Z,13.40
2023-02-08T11:29:33.316Z,18.97
2023-02-08T11:32:21.446Z,14.13
2023-02-08T11:35:25.279Z,13.50
2023-02-08T11:38:19.205Z,13.30
2023-02-08T11:41:14.587Z,13.50
2023-02-08T11:44:06.361Z,14.03
2023-02-08T11:46:54.829Z,12.13
2023-02-08T11:49:43.735Z,12.47
2023-02-08T11:52:33.787Z,12.23
2023-02-08T11:55:26.025Z,11.90
2023-02-08T11:58:13.390Z,10.83
2023-02-08T12:01:03.053Z,12.00
2023-02-08T12:03:51.215Z,11.77
2023-02-08T12:06:50.893Z,10.77
2023-02-08T12:09:41.336Z,11.80
2023-02-08T12:12:39.634Z,12.00
2023-02-08T12:15:57.784Z,12.53
2023-02-08T12:18:59.169Z,11.67
2023-02-08T12:21:47.798Z,11.53
2023-02-08T12:24:35.162Z,11.67
2023-02-08T12:27:31.000Z,10.97
2023-02-08T12:30:31.755Z,11.80
2023-02-08T12:33:51.773Z,12.77
2023-02-08T12:36:45.320Z,9.63
2023-02-08T12:39:58.545Z,10.17
2023-02-08T12:42:55.399Z,10.87
2023-02-08T12:45:51.751Z,11.53
2023-02-08T12:49:04.554Z,10.53
2023-02-08T12:52:13.678Z,9.67
2023-02-08T12:55:10.981Z,10.03
2023-02-08T12:57:59.649Z,11.00
2023-02-08T13:00:47.978Z,10.93
2023-02-08T13:03:58.421Z,10.30
2023-02-08T13:06:49.602Z,11.17
2023-02-08T13:09:41.059Z,10.97
2023-02-08T13:12:31.275Z,11.27
2023-02-08T13:15:30.261Z,11.57
2023-02-08T13:18:21.016Z,10.30
2023-02-08T13:21:20.569Z,11.27
2023-02-08T13:24:17.718Z,11.47
2023-02-08T13:27:08.075Z,10.80
2023-02-08T13:29:55.882Z,11.00
2023-02-08T13:32:45.335Z,10.73
2023-02-08T13:35:33.140Z,10.90
2023-02-08T13:38:32.503Z,11.97
2023-02-08T13:41:21.378Z,11.37
2023-02-08T13:44:10.503Z,11.20
2023-02-08T13:46:58.253Z,13.17
2023-02-08T13:49:52.436Z,11.23
2023-02-08T13:52:48.172Z,11.67
2023-02-08T13:55:38.267Z,11.40
2023-02-08T13:58:35.430Z,11.60
2023-02-08T14:01:24.961Z,11.13
2023-02-08T14:04:12.486Z,10.47
2023-02-08T14:07:01.779Z,10.53
2023-02-08T14:09:49.218Z,11.00
2023-02-08T14:12:42.761Z,11.93
2023-02-08T14:15:32.052Z,11.23
2023-02-08T14:18:25.160Z,11.73
2023-02-08T14:21:23.665Z,10.90
2023-02-08T14:24:22.563Z,12.07
2023-02-08T14:27:21.185Z,11.00
2023-02-08T14:30:20.773Z,11.43
2023-02-08T14:33:08.105Z,11.67
2023-02-08T14:36:05.867Z,12.27
2023-02-08T14:39:05.266Z,14.10
2023-02-08T14:42:01.848Z,12.23
2023-02-08T14:44:56.652Z,11.40
2023-02-08T14:47:43.972Z,11.40
2023-02-08T14:50:33.272Z,10.73
2023-02-08T14:53:24.803Z,10.60
2023-02-08T14:56:23.305Z,11.10
2023-02-08T14:59:18.790Z,10.83
2023-02-08T15:02:16.082Z,10.83
2023-02-08T15:05:09.933Z,10.27
2023-02-08T15:08:01.703Z,10.63
2023-02-08T15:10:49.060Z,11.20
2023-02-08T15:13:36.564Z,11.97
2023-02-08T15:16:26.626Z,11.43
2023-02-08T15:19:38.420Z,14.23
2023-02-08T15:22:25.885Z,12.43
2023-02-08T15:25:25.566Z,13.40
2023-02-08T15:28:21.610Z,12.33
2023-02-08T15:31:10.287Z,11.93
2023-02-08T15:33:58.992Z,11.93
2023-02-08T15:36:49.229Z,13.63
2023-02-08T15:39:39.381Z,12.27
2023-02-08T15:42:28.940Z,12.57
2023-02-08T15:45:24.600Z,11.23
2023-02-08T15:48:12.872Z,12.10
2023-02-08T15:51:00.790Z,12.53
2023-02-08T15:53:50.058Z,13.30
2023-02-08T15:56:42.412Z,12.90
2023-02-08T15:59:32.750Z,14.13
2023-02-08T16:02:31.151Z,13.30
2023-02-08T16:05:20.976Z,14.23
2023-02-08T16:08:08.603Z,13.33
2023-02-08T16:11:16.199Z,12.90
2023-02-08T16:14:05.187Z,12.37
2023-02-08T16:16:54.237Z,13.33
2023-02-08T16:19:50.903Z,15.10
2023-02-08T16:22:38.309Z,16.87
2023-02-08T16:25:34.333Z,17.27
2023-02-08T16:28:26.894Z,16.57
2023-02-08T16:31:20.355Z,15.00
2023-02-08T16:34:13.492Z,14.50
2023-02-08T16:37:01.746Z,16.17
2023-02-08T16:39:49.105Z,16.63
2023-02-08T16:42:39.881Z,14.63
2023-02-08T16:45:27.282Z,18.90
2023-02-08T16:48:28.877Z,17.50
2023-02-08T16:51:21.805Z,19.33
2023-02-08T16:54:14.324Z,19.27
2023-02-08T16:57:01.882Z,16.90
2023-02-08T16:59:49.328Z,16.17
2023-02-08T17:02:36.733Z,15.70
2023-02-08T17:05:25.680Z,16.07
2023-02-08T17:08:15.831Z,14.40
2023-02-08T17:11:03.305Z,18.85
2023-02-08T17:13:52.263Z,15.93
2023-02-08T17:16:40.462Z,16.63
2023-02-08T17:19:27.811Z,16.83
2023-02-08T17:22:15.288Z,16.07
2023-02-08T17:25:02.742Z,16.67
2023-02-08T17:27:51.289Z,16.00
2023-02-08T17:30:40.159Z,16.37
2023-02-08T17:33:29.240Z,16.73
2023-02-08T17:36:17.184Z,18.13
2023-02-08T17:39:05.420Z,16.93
2023-02-08T17:41:52.774Z,17.30
2023-02-08T17:44:40.282Z,16.43
2023-02-08T17:47:27.700Z,17.73
2023-02-08T17:50:15.939Z,16.97
2023-02-08T17:53:03.907Z,16.30
2023-02-08T17:55:52.353Z,17.87
2023-02-08T17:58:40.161Z,17.30
2023-02-08T18:01:27.868Z,16.83
2023-02-08T18:04:15.290Z,18.23
2023-02-08T18:07:02.687Z,19.43
2023-02-08T18:09:50.037Z,19.00
2023-02-08T18:12:38.050Z,19.53
2023-02-08T18:15:25.505Z,17.88
2023-02-08T18:18:13.082Z,19.43
2023-02-08T18:21:00.432Z,19.50
2023-02-08T18:23:49.419Z,20.17
2023-02-08T18:26:36.883Z,19.77
2023-02-08T18:29:24.869Z,20.87
2023-02-08T18:32:12.433Z,19.90
2023-02-08T18:35:02.387Z,19.83
2023-02-08T18:37:50.869Z,19.90
2023-02-08T18:40:40.447Z,18.90
2023-02-08T18:43:27.799Z,20.47
2023-02-08T18:46:18.240Z,21.53
2023-02-08T18:49:06.748Z,21.53
2023-02-08T18:51:54.211Z,20.07
2023-02-08T18:54:41.613Z,19.97
2023-02-08T18:57:29.050Z,18.23
2023-02-08T19:00:16.781Z,22.30
2023-02-08T19:03:04.227Z,18.97
2023-02-08T19:05:51.665Z,24.63
2023-02-08T19:08:40.277Z,21.87
2023-02-08T19:11:29.221Z,19.13
2023-02-08T19:14:16.583Z,21.83
2023-02-08T19:17:04.406Z,20.70
2023-02-08T19:19:51.774Z,20.70
2023-02-08T19:22:39.155Z,21.27
2023-02-08T19:25:26.518Z,19.37
2023-02-08T19:28:13.983Z,20.23
2023-02-08T19:31:12.634Z,20.57
2023-02-08T19:34:01.704Z,21.60
2023-02-08T19:36:51.651Z,19.93
2023-02-08T19:39:39.194Z,20.50
2023-02-08T19:42:26.575Z,19.60
2023-02-08T19:45:14.559Z,20.33
2023-02-08T19:48:01.937Z,20.90
2023-02-08T19:51:00.981Z,19.47
2023-02-08T19:53:48.384Z,22.60
2023-02-08T19:56:35.744Z,21.10
2023-02-08T19:59:27.768Z,19.53
2023-02-08T20:02:18.230Z,21.53
2023-02-08T20:05:05.920Z,18.80
2023-02-08T20:07:53.302Z,21.43
2023-02-08T20:10:44.790Z,20.83
2023-02-08T20:13:32.402Z,20.80
2023-02-08T20:16:21.484Z,21.57
2023-02-08T20:19:11.326Z,20.57
2023-02-08T20:21:58.759Z,21.10
2023-02-08T20:24:46.094Z,20.73
2023-02-08T20:27:33.617Z,19.73
2023-02-08T20:30:21.162Z,19.73
2023-02-08T20:33:08.582Z,20.93
2023-02-08T20:35:56.016Z,22.53
2023-02-08T20:38:44.336Z,19.63
2023-02-08T20:41:33.879Z,20.90
2023-02-08T20:44:21.311Z,21.47
2023-02-08T20:47:10.570Z,19.23
2023-02-08T20:49:59.596Z,22.40
2023-02-08T20:52:49.075Z,22.10
2023-02-08T20:55:40.638Z,20.30
2023-02-08T20:58:28.148Z,20.80
2023-02-08T21:01:17.143Z,20.37
2023-02-08T21:04:05.417Z,19.27
2023-02-08T21:06:53.218Z,21.60
2023-02-08T21:09:40.598Z,21.03
2023-02-08T21:12:33.320Z,21.10
2023-02-08T21:15:25.781Z,21.00
2023-02-08T21:18:13.312Z,20.57
2023-02-08T21:21:01.890Z,22.00
2023-02-08T21:23:49.262Z,20.53
2023-02-08T21:26:36.829Z,22.10
2023-02-08T21:29:24.959Z,22.40
2023-02-08T21:32:12.327Z,22.10
2023-02-08T21:34:59.707Z,21.70
2023-02-08T21:37:47.112Z,21.07
2023-02-08T21:40:34.704Z,22.10
2023-02-08T21:43:22.122Z,23.00
2023-02-08T21:46:10.232Z,22.47
2023-02-08T21:49:16.699Z,20.73
2023-02-08T21:52:22.861Z,21.27
2023-02-08T21:55:10.249Z,22.60
2023-02-08T21:57:57.601Z,21.87
2023-02-08T22:00:45.326Z,23.03
2023-02-08T22:03:34.443Z,22.77
2023-02-08T22:06:40.413Z,24.73
2023-02-08T22:09:29.043Z,24.13
2023-02-08T22:12:17.929Z,23.00
2023-02-08T22:15:05.552Z,22.37
2023-02-08T22:17:54.362Z,21.93
2023-02-08T22:20:43.554Z,24.33
2023-02-08T22:23:31.094Z,24.73
2023-02-08T22:26:18.488Z,22.70
2023-02-08T22:29:05.941Z,23.70
2023-02-08T22:31:53.494Z,22.40
2023-02-08T22:34:40.944Z,25.00
2023-02-08T22:37:28.334Z,24.17
2023-02-08T22:40:16.014Z,22.67
2023-02-08T22:43:03.791Z,22.67
2023-02-08T22:46:00.524Z,23.13
2023-02-08T22:48:48.213Z,23.80
2023-02-08T22:51:35.626Z,24.93
2023-02-08T22:54:23.125Z,24.90
2023-02-08T22:57:10.861Z,23.50
2023-02-08T22:59:58.328Z,25.83
2023-02-08T23:02:46.189Z,23.27
2023-02-08T23:05:33.680Z,25.23
2023-02-08T23:08:22.790Z,25.50
2023-02-08T23:11:16.939Z,25.27
2023-02-08T23:14:04.416Z,25.40
2023-02-08T23:16:51.792Z,28.23
2023-02-08T23:19:41.137Z,25.50
2023-02-08T23:22:28.534Z,26.37
2023-02-08T23:25:15.961Z,26.07
2023-02-08T23:28:03.376Z,25.03
2023-02-08T23:30:50.827Z,26.73
2023-02-08T23:33:38.821Z,26.43
2023-02-08T23:36:26.211Z,28.43
2023-02-08T23:39:14.755Z,27.87
2023-02-08T23:42:03.165Z,26.30
2023-02-08T23:44:50.700Z,29.87
2023-02-08T23:47:39.410Z,27.80
2023-02-08T23:50:27.119Z,29.33
2023-02-08T23:53:14.491Z,27.13
2023-02-08T23:56:11.159Z,29.90
2023-02-08T23:58:59.406Z,29.33
